Time;durP1;ratioP1;P1;durP2;ratioP2;P2;SDS_P1;SDS_P2;PMS_P1;PMS_P2;Temp;Humidity;BMP_temperature;BMP_pressure;BME280_temperature;BME280_humidity;BME280_pressure;Samples;Min_cycle;Max_cycle;Signal;HPM_P1;HPM_P2
2021/10/19 00:01:04;;;;;;;13.48;5.00;;;;;;;;;;4953093;28;20051;-62
2021/10/19 00:03:30;;;;;;;10.68;5.32;;;;;;;;;;4949761;28;20366;-63
2021/10/19 00:05:56;;;;;;;8.48;4.68;;;;;;;;;;4951749;28;20039;-65
2021/10/19 00:08:22;;;;;;;8.73;4.72;;;;;;;;;;4950450;28;20071;-63
2021/10/19 00:10:48;;;;;;;14.32;5.43;;;;;;;;;;4952444;28;20043;-63
2021/10/19 00:13:13;;;;;;;12.35;5.00;;;;;;;;;;4950922;28;20503;-62
2021/10/19 00:15:39;;;;;;;11.18;5.53;;;;;;;;;;4953186;28;20051;-61
2021/10/19 00:18:05;;;;;;;11.05;4.57;;;;;;;;;;4954089;28;20090;-62
2021/10/19 00:20:31;;;;;;;10.13;4.90;;;;;;;;;;4952863;28;20051;-64
2021/10/19 00:22:57;;;;;;;7.65;4.65;;;;;;;;;;4957955;28;20045;-61
2021/10/19 00:25:23;;;;;;;10.43;4.65;;;;;;;;;;4950199;28;20398;-60
2021/10/19 00:27:49;;;;;;;12.10;5.63;;;;;;;;;;4951213;28;20051;-60
2021/10/19 00:30:15;;;;;;;12.25;5.20;;;;;;;;;;4949580;28;20053;-61
2021/10/19 00:32:41;;;;;;;23.83;6.20;;;;;;;;;;4955770;28;20051;-61
2021/10/19 00:35:08;;;;;;;10.40;5.25;;;;;;;;;;4961879;28;20141;-63
2021/10/19 00:37:34;;;;;;;8.68;5.10;;;;;;;;;;4965261;28;20061;-62
2021/10/19 00:40:00;;;;;;;10.07;5.55;;;;;;;;;;4994749;28;20039;-62
2021/10/19 00:42:26;;;;;;;13.82;5.90;;;;;;;;;;4980803;28;20077;-64
2021/10/19 00:44:52;;;;;;;10.85;5.78;;;;;;;;;;4982743;28;20050;-62
2021/10/19 00:47:22;;;;;;;10.05;6.00;;;;;;;;;;4979402;28;20039;-62
2021/10/19 00:49:48;;;;;;;12.80;6.00;;;;;;;;;;4970060;28;20070;-61
2021/10/19 00:52:15;;;;;;;12.43;5.90;;;;;;;;;;4972173;28;20043;-62
2021/10/19 00:54:42;;;;;;;11.30;5.72;;;;;;;;;;4966732;28;20043;-61
2021/10/19 00:57:08;;;;;;;17.27;6.30;;;;;;;;;;4964184;28;20118;-62
2021/10/19 00:59:36;;;;;;;9.88;5.75;;;;;;;;;;4960672;28;20512;-61
2021/10/19 01:02:05;;;;;;;12.45;6.32;;;;;;;;;;4960619;28;20526;-61
2021/10/19 01:04:30;;;;;;;9.18;6.10;;;;;;;;;;4958616;28;20071;-61
2021/10/19 01:06:56;;;;;;;9.88;6.68;;;;;;;;;;4955726;28;20122;-61
2021/10/19 01:09:22;;;;;;;7.82;4.65;;;;;;;;;;4956343;28;20118;-60
2021/10/19 01:11:48;;;;;;;10.82;6.68;;;;;;;;;;4956507;28;20065;-61
2021/10/19 01:14:14;;;;;;;16.67;7.00;;;;;;;;;;4953904;28;20086;-62
2021/10/19 01:16:40;;;;;;;15.93;7.28;;;;;;;;;;4951800;28;20038;-62
2021/10/19 01:19:05;;;;;;;14.15;7.28;;;;;;;;;;4954634;28;20399;-61
2021/10/19 01:21:31;;;;;;;13.15;6.43;;;;;;;;;;4951223;28;20059;-61
2021/10/19 01:23:57;;;;;;;16.77;6.53;;;;;;;;;;4949306;28;20479;-62
2021/10/19 01:26:23;;;;;;;10.00;6.60;;;;;;;;;;4964272;28;20078;-61
2021/10/19 01:28:49;;;;;;;12.23;7.47;;;;;;;;;;4949985;28;20039;-61
2021/10/19 01:31:15;;;;;;;14.20;6.85;;;;;;;;;;4947920;28;20042;-62
2021/10/19 01:33:41;;;;;;;12.52;6.82;;;;;;;;;;4947903;28;20039;-60
2021/10/19 01:36:07;;;;;;;12.15;7.07;;;;;;;;;;4951278;28;20041;-61
2021/10/19 01:38:34;;;;;;;12.90;6.53;;;;;;;;;;4949100;28;20452;-62
2021/10/19 01:41:01;;;;;;;12.25;6.30;;;;;;;;;;4951327;28;20035;-63
2021/10/19 01:43:27;;;;;;;15.77;7.28;;;;;;;;;;4948798;28;20043;-62
2021/10/19 01:45:55;;;;;;;11.95;6.47;;;;;;;;;;4955164;28;20039;-62
2021/10/19 01:48:21;;;;;;;13.15;6.85;;;;;;;;;;4955519;28;20039;-61
2021/10/19 01:50:47;;;;;;;17.27;7.72;;;;;;;;;;4956369;28;20132;-61
2021/10/19 01:53:13;;;;;;;11.07;6.47;;;;;;;;;;4958590;28;20043;-62
2021/10/19 01:55:39;;;;;;;10.88;6.90;;;;;;;;;;4959546;28;20539;-61
2021/10/19 01:58:05;;;;;;;11.15;6.88;;;;;;;;;;4960696;28;20226;-61
2021/10/19 02:00:31;;;;;;;13.35;6.65;;;;;;;;;;4960100;28;20049;-64
2021/10/19 02:02:57;;;;;;;16.83;7.63;;;;;;;;;;4966194;28;20074;-63
2021/10/19 02:05:23;;;;;;;13.43;7.35;;;;;;;;;;4974449;28;20035;-64
2021/10/19 02:07:49;;;;;;;15.85;7.75;;;;;;;;;;4983383;28;20046;-60
2021/10/19 02:10:15;;;;;;;12.05;7.10;;;;;;;;;;4984130;28;20108;-63
2021/10/19 02:12:41;;;;;;;13.45;6.95;;;;;;;;;;4978268;28;20047;-62
2021/10/19 02:15:08;;;;;;;16.42;7.43;;;;;;;;;;4956153;28;21841;-62
2021/10/19 02:17:34;;;;;;;14.70;7.70;;;;;;;;;;4957116;28;20082;-62
2021/10/19 02:20:00;;;;;;;14.50;7.05;;;;;;;;;;4954665;28;20089;-62
2021/10/19 02:22:30;;;;;;;18.20;7.57;;;;;;;;;;4953333;28;20067;-62
2021/10/19 02:24:57;;;;;;;16.38;7.28;;;;;;;;;;4956091;28;20081;-61
2021/10/19 02:27:23;;;;;;;14.48;6.97;;;;;;;;;;4958812;28;20043;-63
2021/10/19 02:29:49;;;;;;;10.68;6.65;;;;;;;;;;4956819;28;20945;-62
2021/10/19 02:32:15;;;;;;;11.70;6.85;;;;;;;;;;4954479;28;20043;-62
2021/10/19 02:34:40;;;;;;;11.43;6.97;;;;;;;;;;4955443;28;20318;-63
2021/10/19 02:37:06;;;;;;;13.70;6.78;;;;;;;;;;4971845;28;20035;-61
2021/10/19 02:39:32;;;;;;;14.27;7.75;;;;;;;;;;4956188;28;20105;-64
2021/10/19 02:41:58;;;;;;;10.13;6.10;;;;;;;;;;4959336;28;20339;-62
2021/10/19 02:44:24;;;;;;;10.77;6.85;;;;;;;;;;4953920;28;20484;-63
2021/10/19 02:46:50;;;;;;;14.70;6.38;;;;;;;;;;4957499;28;20039;-63
2021/10/19 02:49:16;;;;;;;14.38;6.25;;;;;;;;;;4963139;28;20446;-63
2021/10/19 02:51:41;;;;;;;11.70;6.57;;;;;;;;;;4956076;28;20561;-63
2021/10/19 02:54:10;;;;;;;11.23;6.07;;;;;;;;;;4955635;28;20047;-63
2021/10/19 02:56:36;;;;;;;10.95;6.00;;;;;;;;;;4952068;28;20113;-62
2021/10/19 02:59:02;;;;;;;11.73;5.68;;;;;;;;;;4954256;28;20043;-62
2021/10/19 03:01:28;;;;;;;10.18;5.40;;;;;;;;;;4955532;28;20954;-62
2021/10/19 03:03:54;;;;;;;10.65;5.53;;;;;;;;;;4956270;28;20034;-62
2021/10/19 03:06:20;;;;;;;8.85;5.47;;;;;;;;;;4955739;28;20521;-63
2021/10/19 03:08:46;;;;;;;9.38;4.95;;;;;;;;;;4958703;28;20074;-63
2021/10/19 03:11:12;;;;;;;10.15;5.10;;;;;;;;;;4952219;28;20047;-62
2021/10/19 03:13:37;;;;;;;7.97;4.53;;;;;;;;;;4949092;28;26063;-62
2021/10/19 03:16:03;;;;;;;14.50;5.88;;;;;;;;;;4951871;28;20039;-62
2021/10/19 03:18:29;;;;;;;14.25;4.70;;;;;;;;;;4965883;28;20090;-63
2021/10/19 03:20:55;;;;;;;9.02;4.80;;;;;;;;;;4954530;28;20054;-63
2021/10/19 03:23:21;;;;;;;10.07;4.47;;;;;;;;;;4950471;28;20047;-62
2021/10/19 03:25:47;;;;;;;13.07;4.65;;;;;;;;;;4955377;28;20039;-60
2021/10/19 03:28:13;;;;;;;7.43;4.25;;;;;;;;;;4954387;28;20070;-61
2021/10/19 03:30:40;;;;;;;8.65;3.65;;;;;;;;;;4951129;28;20452;-61
2021/10/19 03:33:06;;;;;;;10.50;4.32;;;;;;;;;;4966422;28;20650;-61
2021/10/19 03:35:32;;;;;;;8.73;4.32;;;;;;;;;;4951382;28;20065;-61
2021/10/19 03:37:58;;;;;;;7.68;4.20;;;;;;;;;;4953240;28;20789;-61
2021/10/19 03:40:24;;;;;;;7.60;3.72;;;;;;;;;;4953294;28;20039;-62
2021/10/19 03:42:50;;;;;;;8.85;4.60;;;;;;;;;;4954814;28;20106;-62
2021/10/19 03:45:17;;;;;;;7.30;4.68;;;;;;;;;;4968269;28;20055;-63
2021/10/19 03:47:43;;;;;;;13.13;4.90;;;;;;;;;;4955177;28;20083;-61
2021/10/19 03:50:09;;;;;;;7.63;4.97;;;;;;;;;;4953924;28;20058;-62
2021/10/19 03:52:36;;;;;;;12.13;5.43;;;;;;;;;;4951959;28;20042;-63
2021/10/19 03:55:02;;;;;;;10.13;5.30;;;;;;;;;;4949690;28;20043;-62
2021/10/19 03:57:28;;;;;;;8.48;4.80;;;;;;;;;;4951662;28;20686;-62
2021/10/19 03:59:54;;;;;;;15.45;5.55;;;;;;;;;;4954413;28;20057;-62
2021/10/19 04:02:20;;;;;;;8.75;5.43;;;;;;;;;;4953824;28;20098;-61
2021/10/19 04:04:46;;;;;;;7.32;4.65;;;;;;;;;;4949349;28;20043;-60
2021/10/19 04:07:13;;;;;;;11.18;6.70;;;;;;;;;;4967366;28;20047;-59
2021/10/19 04:09:40;;;;;;;10.95;6.10;;;;;;;;;;4949812;28;20415;-60
2021/10/19 04:12:06;;;;;;;11.27;5.35;;;;;;;;;;4949955;28;20042;-60
2021/10/19 04:14:33;;;;;;;11.65;5.75;;;;;;;;;;4945683;28;20082;-60
2021/10/19 04:16:58;;;;;;;12.45;4.88;;;;;;;;;;4966998;28;20102;-59
2021/10/19 04:19:25;;;;;;;8.88;5.28;;;;;;;;;;4951188;28;20127;-61
2021/10/19 04:21:50;;;;;;;14.07;6.85;;;;;;;;;;4941298;28;20122;-61
2021/10/19 04:24:17;;;;;;;10.52;6.22;;;;;;;;;;4950864;28;21308;-59
2021/10/19 04:26:43;;;;;;;9.82;5.95;;;;;;;;;;4950137;28;20857;-59
2021/10/19 04:29:11;;;;;;;9.23;5.75;;;;;;;;;;4949445;28;20098;-60
2021/10/19 04:31:38;;;;;;;10.18;6.05;;;;;;;;;;4949263;28;20039;-60
2021/10/19 04:34:04;;;;;;;9.05;5.80;;;;;;;;;;4949358;28;20039;-60
2021/10/19 04:36:31;;;;;;;9.52;5.20;;;;;;;;;;4949889;28;20031;-60
2021/10/19 04:38:57;;;;;;;11.63;6.60;;;;;;;;;;4951179;28;20039;-58
2021/10/19 04:41:23;;;;;;;11.55;6.35;;;;;;;;;;4951461;28;20054;-59
2021/10/19 04:43:49;;;;;;;14.55;7.15;;;;;;;;;;4950000;28;20063;-60
2021/10/19 04:46:15;;;;;;;12.35;6.50;;;;;;;;;;4953345;28;20114;-59
2021/10/19 04:48:41;;;;;;;12.02;7.47;;;;;;;;;;4951711;28;20049;-60
2021/10/19 04:51:09;;;;;;;14.60;8.70;;;;;;;;;;4951953;28;20038;-59
2021/10/19 04:53:35;;;;;;;11.50;6.90;;;;;;;;;;4948316;28;20118;-60
2021/10/19 04:56:01;;;;;;;11.02;6.45;;;;;;;;;;4951457;28;20055;-60
2021/10/19 04:58:26;;;;;;;14.02;6.95;;;;;;;;;;4948917;28;20171;-61
2021/10/19 05:00:52;;;;;;;11.50;7.00;;;;;;;;;;4947167;28;20030;-59
2021/10/19 05:03:20;;;;;;;17.48;6.93;;;;;;;;;;4949187;28;20074;-60
2021/10/19 05:05:46;;;;;;;12.32;7.15;;;;;;;;;;4950046;28;20045;-60
2021/10/19 05:08:12;;;;;;;15.15;7.13;;;;;;;;;;4950762;28;20775;-61
2021/10/19 05:10:38;;;;;;;15.93;8.02;;;;;;;;;;4950344;28;20035;-59
2021/10/19 05:13:04;;;;;;;12.75;6.65;;;;;;;;;;4948692;28;20042;-60
2021/10/19 05:15:29;;;;;;;15.55;6.78;;;;;;;;;;4947896;28;20047;-60
2021/10/19 05:17:55;;;;;;;12.40;7.28;;;;;;;;;;4949167;28;20063;-60
2021/10/19 05:20:22;;;;;;;11.30;6.57;;;;;;;;;;4952069;28;20073;-60
2021/10/19 05:22:48;;;;;;;12.48;7.30;;;;;;;;;;4952780;28;20066;-60
2021/10/19 05:25:15;;;;;;;11.15;6.55;;;;;;;;;;4953491;28;20035;-60
2021/10/19 05:27:42;;;;;;;10.93;6.57;;;;;;;;;;4953144;28;20087;-61
2021/10/19 05:30:08;;;;;;;18.08;7.15;;;;;;;;;;4954070;28;20039;-60
2021/10/19 05:32:34;;;;;;;24.00;7.72;;;;;;;;;;4953583;28;20483;-60
2021/10/19 05:35:00;;;;;;;15.73;6.40;;;;;;;;;;4954688;28;20327;-60
2021/10/19 05:37:26;;;;;;;11.70;7.22;;;;;;;;;;4952659;28;20503;-60
2021/10/19 05:39:52;;;;;;;11.05;6.47;;;;;;;;;;4954898;28;20047;-61
2021/10/19 05:42:18;;;;;;;11.45;7.20;;;;;;;;;;4954740;28;20069;-61
2021/10/19 05:44:44;;;;;;;11.73;6.88;;;;;;;;;;4954897;28;20063;-59
2021/10/19 05:47:10;;;;;;;10.40;6.00;;;;;;;;;;4958067;28;20043;-59
2021/10/19 05:49:36;;;;;;;11.57;6.47;;;;;;;;;;4967773;28;20077;-60
2021/10/19 05:52:02;;;;;;;14.38;7.10;;;;;;;;;;4972368;28;20087;-60
2021/10/19 05:54:28;;;;;;;10.73;6.53;;;;;;;;;;4978774;28;20054;-60
2021/10/19 05:56:54;;;;;;;12.93;7.10;;;;;;;;;;4980459;28;20039;-59
2021/10/19 05:59:20;;;;;;;9.27;6.13;;;;;;;;;;4971102;28;20134;-59
2021/10/19 06:01:46;;;;;;;12.35;6.20;;;;;;;;;;4963815;28;20093;-60
2021/10/19 06:04:12;;;;;;;11.35;6.65;;;;;;;;;;4961768;28;20043;-61
2021/10/19 06:06:38;;;;;;;9.82;6.18;;;;;;;;;;4960018;28;20502;-59
2021/10/19 06:09:04;;;;;;;10.45;6.28;;;;;;;;;;4959146;28;20039;-59
2021/10/19 06:11:30;;;;;;;10.95;6.07;;;;;;;;;;4955989;28;20190;-59
2021/10/19 06:13:56;;;;;;;12.52;5.82;;;;;;;;;;4953538;28;20414;-59
2021/10/19 06:16:22;;;;;;;9.18;5.93;;;;;;;;;;4953344;28;20456;-59
2021/10/19 06:18:48;;;;;;;15.88;5.68;;;;;;;;;;4953079;28;20039;-59
2021/10/19 06:21:14;;;;;;;10.38;6.75;;;;;;;;;;4954287;28;20039;-61
2021/10/19 06:23:40;;;;;;;10.63;6.38;;;;;;;;;;4953998;28;20034;-60
2021/10/19 06:26:06;;;;;;;13.48;6.88;;;;;;;;;;4958160;28;20065;-61
2021/10/19 06:28:32;;;;;;;14.57;6.45;;;;;;;;;;4956177;28;20046;-60
2021/10/19 06:30:58;;;;;;;10.80;5.90;;;;;;;;;;4958814;28;20165;-61
2021/10/19 06:33:24;;;;;;;12.35;6.53;;;;;;;;;;4953227;28;20069;-60
2021/10/19 06:35:50;;;;;;;12.75;7.07;;;;;;;;;;4971132;28;20031;-60
2021/10/19 06:38:16;;;;;;;14.88;5.95;;;;;;;;;;4956647;28;20079;-60
2021/10/19 06:40:42;;;;;;;11.55;6.45;;;;;;;;;;4955477;28;20039;-63
2021/10/19 06:43:09;;;;;;;13.82;6.20;;;;;;;;;;4954661;28;20046;-62
2021/10/19 06:45:35;;;;;;;9.80;5.55;;;;;;;;;;4954740;28;20552;-60
2021/10/19 06:48:01;;;;;;;11.13;6.43;;;;;;;;;;4956116;28;20045;-61
2021/10/19 06:50:27;;;;;;;10.63;6.18;;;;;;;;;;4955563;28;20054;-61
2021/10/19 06:52:53;;;;;;;12.77;6.13;;;;;;;;;;4954556;28;20118;-61
2021/10/19 06:55:22;;;;;;;9.68;6.05;;;;;;;;;;4952126;28;20050;-61
2021/10/19 06:57:48;;;;;;;10.07;6.35;;;;;;;;;;4954863;28;20084;-62
2021/10/19 07:00:15;;;;;;;10.23;6.05;;;;;;;;;;4955815;28;20054;-62
2021/10/19 07:02:41;;;;;;;13.75;5.88;;;;;;;;;;4955420;28;20057;-63
2021/10/19 07:05:07;;;;;;;15.50;5.80;;;;;;;;;;4958534;28;20043;-62
2021/10/19 07:07:34;;;;;;;12.25;5.95;;;;;;;;;;4959074;28;20050;-61
2021/10/19 07:10:00;;;;;;;14.20;5.80;;;;;;;;;;4961059;28;20077;-61
2021/10/19 07:12:26;;;;;;;12.25;5.70;;;;;;;;;;4959577;28;20042;-61
2021/10/19 07:14:52;;;;;;;18.05;6.03;;;;;;;;;;4958693;28;20071;-61
2021/10/19 07:17:18;;;;;;;12.73;6.18;;;;;;;;;;4957396;28;20058;-62
2021/10/19 07:19:46;;;;;;;10.55;5.38;;;;;;;;;;4956071;28;20035;-62
2021/10/19 07:22:12;;;;;;;9.73;5.45;;;;;;;;;;4956815;28;20058;-61
2021/10/19 07:24:38;;;;;;;10.00;5.53;;;;;;;;;;4953200;28;21576;-62
2021/10/19 07:27:04;;;;;;;9.63;5.60;;;;;;;;;;4956105;28;20759;-62
2021/10/19 07:29:29;;;;;;;15.73;5.35;;;;;;;;;;4953865;28;20038;-61
2021/10/19 07:31:55;;;;;;;11.45;5.50;;;;;;;;;;4954551;28;20043;-60
2021/10/19 07:34:21;;;;;;;9.68;4.93;;;;;;;;;;4952712;28;20046;-61
2021/10/19 07:36:47;;;;;;;10.32;5.13;;;;;;;;;;4957216;28;20043;-61
2021/10/19 07:39:13;;;;;;;7.70;4.93;;;;;;;;;;4956416;28;20537;-60
2021/10/19 07:41:39;;;;;;;10.02;4.82;;;;;;;;;;4954957;28;20488;-62
2021/10/19 07:44:06;;;;;;;8.85;4.40;;;;;;;;;;4955882;28;20049;-60
2021/10/19 07:46:32;;;;;;;7.50;4.43;;;;;;;;;;4956232;28;20152;-61
2021/10/19 07:48:58;;;;;;;8.48;4.40;;;;;;;;;;4955747;28;20038;-61
2021/10/19 07:51:24;;;;;;;7.32;3.85;;;;;;;;;;4954464;28;20673;-61
2021/10/19 07:53:50;;;;;;;8.18;3.83;;;;;;;;;;4951597;28;20567;-61
2021/10/19 07:56:17;;;;;;;6.13;3.38;;;;;;;;;;4951584;28;20047;-61
2021/10/19 07:58:42;;;;;;;4.95;2.97;;;;;;;;;;4953913;28;20114;-62
2021/10/19 08:01:08;;;;;;;6.68;3.08;;;;;;;;;;4953929;28;20038;-61
2021/10/19 08:03:34;;;;;;;5.07;3.13;;;;;;;;;;4952566;28;20046;-61
2021/10/19 08:06:00;;;;;;;5.70;2.85;;;;;;;;;;4953915;28;20051;-61
2021/10/19 08:08:26;;;;;;;6.97;3.10;;;;;;;;;;4951773;28;20054;-61
2021/10/19 08:10:52;;;;;;;4.90;2.83;;;;;;;;;;4950904;28;20047;-61
2021/10/19 08:13:18;;;;;;;5.95;3.20;;;;;;;;;;4947233;28;20043;-60
2021/10/19 08:15:45;;;;;;;5.75;3.08;;;;;;;;;;4950502;28;20039;-60
2021/10/19 08:18:11;;;;;;;7.32;3.22;;;;;;;;;;4949266;28;20106;-60
2021/10/19 08:20:38;;;;;;;4.60;2.80;;;;;;;;;;4950232;28;20055;-60
2021/10/19 08:23:04;;;;;;;4.93;3.08;;;;;;;;;;4949905;28;20144;-60
2021/10/19 08:25:30;;;;;;;6.15;3.30;;;;;;;;;;4950500;28;20089;-59
2021/10/19 08:27:56;;;;;;;10.95;3.05;;;;;;;;;;4951573;28;20598;-61
2021/10/19 08:30:22;;;;;;;6.20;3.53;;;;;;;;;;4951742;28;20058;-61
2021/10/19 08:32:49;;;;;;;5.32;3.35;;;;;;;;;;4948502;28;20039;-60
2021/10/19 08:35:15;;;;;;;5.22;3.03;;;;;;;;;;4950128;28;20082;-61
2021/10/19 08:37:42;;;;;;;4.85;3.10;;;;;;;;;;4949396;28;20042;-60
2021/10/19 08:40:08;;;;;;;5.38;3.35;;;;;;;;;;4950512;28;20761;-60
2021/10/19 08:42:41;;;;;;;6.40;3.50;;;;;;;;;;4951505;28;20042;-60
2021/10/19 08:45:07;;;;;;;5.85;3.35;;;;;;;;;;4965172;28;20063;-60
2021/10/19 08:47:34;;;;;;;5.95;3.33;;;;;;;;;;4951833;28;20575;-59
2021/10/19 08:49:59;;;;;;;6.78;3.25;;;;;;;;;;4952442;28;20411;-60
2021/10/19 08:52:25;;;;;;;7.63;3.88;;;;;;;;;;4949626;28;20043;-61
2021/10/19 08:54:52;;;;;;;9.15;3.58;;;;;;;;;;4948719;28;20097;-60
2021/10/19 08:57:18;;;;;;;6.30;3.58;;;;;;;;;;4948887;28;20050;-59
2021/10/19 08:59:44;;;;;;;5.13;3.35;;;;;;;;;;4948999;28;20039;-60
2021/10/19 09:02:11;;;;;;;7.95;3.70;;;;;;;;;;4950783;28;20361;-59
2021/10/19 09:04:37;;;;;;;6.13;3.67;;;;;;;;;;4952579;28;20035;-57
2021/10/19 09:07:03;;;;;;;6.63;3.80;;;;;;;;;;4955731;28;20047;-59
2021/10/19 09:09:29;;;;;;;8.98;3.72;;;;;;;;;;4954221;28;20516;-59
2021/10/19 09:11:58;;;;;;;6.40;3.80;;;;;;;;;;4955522;28;20046;-61
2021/10/19 09:14:34;;;;;;;6.30;4.30;;;;;;;;;;4948092;28;20057;-60
2021/10/19 09:17:00;;;;;;;10.40;3.40;;;;;;;;;;4952961;28;20047;-60
2021/10/19 09:19:27;;;;;;;5.15;2.97;;;;;;;;;;4950915;28;20039;-60
2021/10/19 09:21:54;;;;;;;7.75;3.58;;;;;;;;;;4952159;28;20054;-61
2021/10/19 09:24:22;;;;;;;5.85;3.60;;;;;;;;;;4949220;28;20134;-60
2021/10/19 09:27:01;;;;;;;5.03;3.28;;;;;;;;;;4949242;28;20042;-58
2021/10/19 09:29:28;;;;;;;7.15;3.83;;;;;;;;;;4950249;28;20040;-60
2021/10/19 09:31:55;;;;;;;6.32;3.60;;;;;;;;;;4949125;28;20778;-59
2021/10/19 09:34:22;;;;;;;6.53;3.35;;;;;;;;;;4946481;28;20066;-59
2021/10/19 09:36:51;;;;;;;5.53;3.10;;;;;;;;;;4950181;28;20067;-59
2021/10/19 09:39:29;;;;;;;10.98;3.70;;;;;;;;;;4950842;28;20031;-60
2021/10/19 09:41:55;;;;;;;5.70;3.53;;;;;;;;;;4950123;28;20049;-62
2021/10/19 09:44:21;;;;;;;9.25;4.05;;;;;;;;;;4949728;28;20039;-61
2021/10/19 09:46:47;;;;;;;5.47;3.35;;;;;;;;;;4952347;28;20046;-61
2021/10/19 09:49:14;;;;;;;5.90;3.22;;;;;;;;;;4953094;28;20047;-61
2021/10/19 09:51:40;;;;;;;5.45;3.10;;;;;;;;;;4952316;28;20039;-60
2021/10/19 09:54:08;;;;;;;6.15;3.58;;;;;;;;;;4951067;28;20054;-60
2021/10/19 09:56:38;;;;;;;6.07;3.30;;;;;;;;;;4950611;28;20500;-60
2021/10/19 09:59:04;;;;;;;5.70;3.20;;;;;;;;;;4950947;28;20039;-61
2021/10/19 10:01:33;;;;;;;5.65;2.80;;;;;;;;;;4951659;28;20051;-62
2021/10/19 10:03:59;;;;;;;5.38;3.30;;;;;;;;;;4953327;28;20082;-61
2021/10/19 10:06:26;;;;;;;9.95;3.03;;;;;;;;;;4953995;28;20046;-61
2021/10/19 10:08:52;;;;;;;5.13;2.88;;;;;;;;;;4959054;28;20054;-61
2021/10/19 10:11:17;;;;;;;5.53;3.08;;;;;;;;;;4973912;28;20046;-61
2021/10/19 10:13:54;;;;;;;6.95;2.72;;;;;;;;;;4956064;28;20055;-61
2021/10/19 10:16:20;;;;;;;5.35;2.78;;;;;;;;;;4967913;28;20130;-61
2021/10/19 10:18:46;;;;;;;4.97;2.78;;;;;;;;;;4972154;28;20073;-61
2021/10/19 10:21:13;;;;;;;5.95;2.90;;;;;;;;;;4955515;28;20534;-60
2021/10/19 10:23:40;;;;;;;4.32;2.60;;;;;;;;;;4955920;28;20497;-60
2021/10/19 10:26:10;;;;;;;4.13;2.35;;;;;;;;;;4972238;28;20050;-61
2021/10/19 10:28:36;;;;;;;5.10;2.72;;;;;;;;;;4963620;28;20039;-61
2021/10/19 10:31:04;;;;;;;7.15;2.55;;;;;;;;;;4976470;28;20043;-60
2021/10/19 10:33:33;;;;;;;4.68;2.70;;;;;;;;;;4958084;28;20038;-60
2021/10/19 10:36:01;;;;;;;4.93;2.72;;;;;;;;;;4955734;28;20038;-60
2021/10/19 10:38:27;;;;;;;6.10;2.63;;;;;;;;;;4953547;28;20039;-61
2021/10/19 10:40:57;;;;;;;7.97;2.80;;;;;;;;;;4954639;28;20097;-60
2021/10/19 10:43:24;;;;;;;4.28;2.33;;;;;;;;;;4954782;28;20054;-61
2021/10/19 10:46:05;;;;;;;5.55;2.67;;;;;;;;;;4954310;28;20118;-61
2021/10/19 10:48:31;;;;;;;4.07;2.17;;;;;;;;;;4954084;28;20038;-61
2021/10/19 10:50:57;;;;;;;4.95;2.30;;;;;;;;;;4952048;28;20046;-61
2021/10/19 10:53:30;;;;;;;5.00;2.25;;;;;;;;;;4951724;28;20125;-60
2021/10/19 10:55:56;;;;;;;7.15;2.63;;;;;;;;;;4952901;28;20039;-61
2021/10/19 10:58:23;;;;;;;4.80;2.10;;;;;;;;;;4951858;28;20054;-62
2021/10/19 11:00:49;;;;;;;5.00;2.78;;;;;;;;;;4953600;28;20800;-62
2021/10/19 11:03:16;;;;;;;4.20;2.30;;;;;;;;;;4954205;28;20058;-61
2021/10/19 11:05:51;;;;;;;5.43;2.58;;;;;;;;;;4950849;28;21813;-61
2021/10/19 11:08:27;;;;;;;4.85;2.38;;;;;;;;;;4951204;28;20058;-60
2021/10/19 11:11:05;;;;;;;3.63;2.05;;;;;;;;;;4950697;28;20375;-61
2021/10/19 11:13:32;;;;;;;10.50;2.55;;;;;;;;;;4952287;28;20078;-60
2021/10/19 11:15:58;;;;;;;4.47;2.70;;;;;;;;;;4952943;28;20039;-60
2021/10/19 11:18:25;;;;;;;7.90;2.83;;;;;;;;;;4952334;28;20066;-60
2021/10/19 11:20:52;;;;;;;4.93;2.33;;;;;;;;;;4956330;28;20042;-60
2021/10/19 11:23:18;;;;;;;4.68;2.63;;;;;;;;;;4954434;28;20504;-60
2021/10/19 11:25:45;;;;;;;4.35;2.20;;;;;;;;;;4955765;28;20089;-60
2021/10/19 11:28:11;;;;;;;7.35;2.42;;;;;;;;;;4954711;28;20093;-60
2021/10/19 11:30:37;;;;;;;4.72;2.33;;;;;;;;;;4953593;28;20081;-60
2021/10/19 11:33:05;;;;;;;8.68;2.45;;;;;;;;;;4954873;28;20126;-61
2021/10/19 11:35:31;;;;;;;5.68;2.65;;;;;;;;;;4958102;28;20094;-60
2021/10/19 11:37:57;;;;;;;4.70;2.40;;;;;;;;;;4972374;28;20043;-61
2021/10/19 11:40:23;;;;;;;4.88;2.72;;;;;;;;;;4982476;28;20042;-62
2021/10/19 11:42:50;;;;;;;4.40;2.55;;;;;;;;;;4984912;28;20059;-60
2021/10/19 11:45:17;;;;;;;5.57;2.55;;;;;;;;;;4983872;28;20090;-60
2021/10/19 11:47:50;;;;;;;4.88;2.47;;;;;;;;;;4971956;28;20131;-60
2021/10/19 11:50:16;;;;;;;4.53;2.50;;;;;;;;;;4960514;28;20039;-60
2021/10/19 11:52:42;;;;;;;5.03;2.47;;;;;;;;;;4954906;28;20040;-60
2021/10/19 11:55:08;;;;;;;4.55;2.22;;;;;;;;;;4954798;28;20096;-61
2021/10/19 11:57:40;;;;;;;4.55;2.60;;;;;;;;;;4953768;28;20046;-61
2021/10/19 12:00:10;;;;;;;4.68;2.53;;;;;;;;;;4953107;28;20047;-63
2021/10/19 12:02:56;;;;;;;5.75;2.75;;;;;;;;;;4952802;28;21094;-62
2021/10/19 12:05:23;;;;;;;4.70;2.72;;;;;;;;;;4951694;28;20556;-59
2021/10/19 12:07:50;;;;;;;4.88;3.03;;;;;;;;;;4954360;28;20090;-61
2021/10/19 12:10:18;;;;;;;5.25;2.42;;;;;;;;;;4951815;28;20856;-59
2021/10/19 12:12:56;;;;;;;5.03;2.80;;;;;;;;;;4953641;28;20055;-60
2021/10/19 12:15:22;;;;;;;6.68;2.92;;;;;;;;;;4954210;28;20043;-59
2021/10/19 12:17:56;;;;;;;6.72;2.90;;;;;;;;;;4955090;28;20476;-59
2021/10/19 12:20:21;;;;;;;7.80;2.72;;;;;;;;;;4956435;28;20215;-61
2021/10/19 12:22:47;;;;;;;9.43;3.78;;;;;;;;;;4956286;28;20123;-61
2021/10/19 12:25:13;;;;;;;7.13;3.13;;;;;;;;;;4953550;28;20241;-61
2021/10/19 12:27:39;;;;;;;6.10;3.72;;;;;;;;;;4952486;28;20061;-61
2021/10/19 12:30:12;;;;;;;5.47;2.85;;;;;;;;;;4952048;28;20042;-62
2021/10/19 12:32:39;;;;;;;6.13;3.42;;;;;;;;;;4953212;28;20122;-60
2021/10/19 12:35:05;;;;;;;5.47;2.90;;;;;;;;;;4955094;28;20105;-59
2021/10/19 12:37:34;;;;;;;11.80;3.38;;;;;;;;;;4952542;28;20174;-60
2021/10/19 12:40:01;;;;;;;5.30;2.78;;;;;;;;;;4954803;28;20045;-60
2021/10/19 12:42:28;;;;;;;6.85;3.58;;;;;;;;;;4951127;28;20101;-61
2021/10/19 12:44:54;;;;;;;5.47;3.33;;;;;;;;;;4951384;28;20199;-60
2021/10/19 12:47:19;;;;;;;6.88;3.53;;;;;;;;;;4952076;28;20682;-60
2021/10/19 12:49:45;;;;;;;6.30;3.47;;;;;;;;;;4950776;28;20516;-60
2021/10/19 12:52:11;;;;;;;8.57;3.90;;;;;;;;;;4950140;28;20077;-61
2021/10/19 12:54:37;;;;;;;5.63;3.28;;;;;;;;;;4951111;28;20074;-61
2021/10/19 12:57:03;;;;;;;5.45;3.00;;;;;;;;;;4952363;28;20039;-61
2021/10/19 12:59:28;;;;;;;7.07;3.75;;;;;;;;;;4950664;28;20074;-61
2021/10/19 13:01:58;;;;;;;7.95;4.22;;;;;;;;;;4952718;28;20055;-61
2021/10/19 13:04:24;;;;;;;6.43;3.25;;;;;;;;;;4950321;28;20102;-60
2021/10/19 13:06:51;;;;;;;5.75;3.22;;;;;;;;;;4965909;28;20083;-61
2021/10/19 13:09:17;;;;;;;6.13;3.40;;;;;;;;;;4950217;28;20051;-62
2021/10/19 13:11:43;;;;;;;5.40;3.47;;;;;;;;;;4950391;28;20070;-61
2021/10/19 13:14:10;;;;;;;7.18;3.88;;;;;;;;;;4953072;28;20137;-62
2021/10/19 13:16:36;;;;;;;8.07;4.00;;;;;;;;;;4954252;28;20039;-61
2021/10/19 13:19:02;;;;;;;7.13;3.92;;;;;;;;;;4956410;28;20460;-61
2021/10/19 13:21:28;;;;;;;7.60;3.80;;;;;;;;;;4955313;28;20753;-61
2021/10/19 13:23:54;;;;;;;5.95;3.58;;;;;;;;;;4954368;28;20050;-61
2021/10/19 13:26:20;;;;;;;6.93;3.80;;;;;;;;;;4953296;28;20047;-61
2021/10/19 13:28:46;;;;;;;5.65;3.63;;;;;;;;;;4950748;28;20157;-62
2021/10/19 13:31:13;;;;;;;9.43;3.58;;;;;;;;;;4962416;28;20079;-61
2021/10/19 13:33:38;;;;;;;9.05;3.70;;;;;;;;;;4950820;28;20566;-60
2021/10/19 13:36:05;;;;;;;8.00;4.20;;;;;;;;;;4952580;28;20051;-62
2021/10/19 13:38:31;;;;;;;5.90;3.63;;;;;;;;;;4950389;28;20553;-63
2021/10/19 13:40:58;;;;;;;6.90;4.20;;;;;;;;;;4955014;28;20039;-62
2021/10/19 13:43:23;;;;;;;7.10;3.88;;;;;;;;;;4954956;28;20062;-61
2021/10/19 13:45:51;;;;;;;7.25;4.10;;;;;;;;;;4955371;28;20043;-60
2021/10/19 13:48:17;;;;;;;7.57;4.18;;;;;;;;;;4968223;28;20038;-60
2021/10/19 13:50:43;;;;;;;9.23;4.35;;;;;;;;;;4956082;28;20602;-61
2021/10/19 13:53:09;;;;;;;10.65;5.13;;;;;;;;;;4957736;28;20047;-62
2021/10/19 13:55:35;;;;;;;8.45;4.43;;;;;;;;;;4970594;28;20392;-62
2021/10/19 13:58:01;;;;;;;9.95;4.72;;;;;;;;;;4958524;28;20419;-61
2021/10/19 14:00:27;;;;;;;8.93;5.13;;;;;;;;;;4957488;28;20328;-61
2021/10/19 14:02:57;;;;;;;14.80;5.10;;;;;;;;;;4955763;28;20074;-63
2021/10/19 14:05:22;;;;;;;9.85;5.13;;;;;;;;;;4956023;28;20045;-62
2021/10/19 14:07:49;;;;;;;10.95;5.50;;;;;;;;;;4954220;28;20717;-61
2021/10/19 14:10:15;;;;;;;11.88;4.97;;;;;;;;;;4955472;28;20031;-63
2021/10/19 14:12:41;;;;;;;9.13;4.72;;;;;;;;;;4955803;28;20069;-62
2021/10/19 14:15:07;;;;;;;8.85;4.78;;;;;;;;;;4957914;28;20057;-61
2021/10/19 14:17:53;;;;;;;8.18;5.00;;;;;;;;;;4921561;29;20540;-62
2021/10/19 14:20:19;;;;;;;10.13;5.00;;;;;;;;;;4922005;29;20166;-61
2021/10/19 14:22:45;;;;;;;11.65;4.50;;;;;;;;;;4921715;29;20055;-61
2021/10/19 14:25:11;;;;;;;9.18;5.25;;;;;;;;;;4922016;29;20059;-60
2021/10/19 14:27:37;;;;;;;8.63;5.25;;;;;;;;;;4923217;29;20464;-63
2021/10/19 14:30:03;;;;;;;13.00;5.13;;;;;;;;;;4922522;29;20036;-61
2021/10/19 14:32:29;;;;;;;7.70;4.75;;;;;;;;;;4905665;29;20035;-61